Time;durP1;ratioP1;P1;durP2;ratioP2;P2;SDS_P1;SDS_P2;PMS_P1;PMS_P2;Temp;Humidity;BMP_temperature;BMP_pressure;BME280_temperature;BME280_humidity;BME280_pressure;Samples;Min_cycle;Max_cycle;Signal;HPM_P1;HPM_P2
2023/05/11 00:02:13;;;;;;;23.23;18.13;;;;;;;11.88;100.00;101313.94;4993786;28;20042;-46
2023/05/11 00:04:39;;;;;;;23.35;18.95;;;;;;;11.90;100.00;101327.09;4976357;28;20089;-49
2023/05/11 00:07:04;;;;;;;24.02;17.48;;;;;;;11.67;100.00;101282.91;4994352;28;20057;-47
2023/05/11 00:09:30;;;;;;;23.80;17.77;;;;;;;11.77;100.00;101308.97;4987278;28;20100;-47
2023/05/11 00:11:55;;;;;;;29.27;20.10;;;;;;;11.80;100.00;101324.72;4992933;28;20046;-46
2023/05/11 00:14:21;;;;;;;29.33;19.95;;;;;;;11.79;100.00;101322.16;4994468;28;20030;-46
2023/05/11 00:16:46;;;;;;;25.92;18.98;;;;;;;11.47;100.00;101267.66;4990588;28;20042;-44
2023/05/11 00:19:11;;;;;;;28.50;20.60;;;;;;;11.82;100.00;101330.81;4994011;28;20034;-47
2023/05/11 00:21:36;;;;;;;28.08;20.67;;;;;;;11.85;100.00;101329.84;4994183;28;20034;-45
2023/05/11 00:24:02;;;;;;;30.45;21.30;;;;;;;11.86;100.00;101328.94;4993082;28;20073;-49
2023/05/11 00:26:27;;;;;;;30.35;22.23;;;;;;;11.84;100.00;101329.00;4987805;28;20104;-47
2023/05/11 00:28:53;;;;;;;29.80;21.90;;;;;;;11.52;100.00;101268.41;4993848;28;20121;-53
2023/05/11 00:31:18;;;;;;;31.30;22.50;;;;;;;11.60;100.00;101278.72;4993181;28;20125;-50
2023/05/11 00:33:43;;;;;;;28.33;20.92;;;;;;;11.81;100.00;101315.91;4994039;28;20058;-48
2023/05/11 00:36:09;;;;;;;32.13;21.85;;;;;;;11.77;100.00;101316.91;4993869;28;20434;-49
2023/05/11 00:38:35;;;;;;;31.33;21.33;;;;;;;11.80;100.00;101332.63;4993855;28;20518;-45
2023/05/11 00:41:01;;;;;;;28.38;21.15;;;;;;;11.83;100.00;101327.28;4982407;28;20078;-47
2023/05/11 00:43:27;;;;;;;32.80;22.45;;;;;;;11.84;100.00;101328.13;4993945;28;20042;-46
2023/05/11 00:45:52;;;;;;;32.35;23.00;;;;;;;11.81;100.00;101322.94;4993359;28;20093;-50
2023/05/11 00:48:17;;;;;;;32.47;22.83;;;;;;;11.83;100.00;101335.19;4993664;28;20034;-51
2023/05/11 00:50:43;;;;;;;34.08;23.90;;;;;;;11.57;100.00;101282.31;4993534;28;20038;-45
2023/05/11 00:53:10;;;;;;;30.63;22.10;;;;;;;11.82;100.00;101325.53;4984280;28;20030;-51
2023/05/11 00:55:35;;;;;;;27.95;20.50;;;;;;;11.74;100.00;101309.06;4991851;28;20042;-47
2023/05/11 00:58:04;;;;;;;28.75;20.38;;;;;;;11.83;100.00;101329.03;4993460;28;20456;-47
2023/05/11 01:00:29;;;;;;;26.02;19.75;;;;;;;11.85;100.00;101337.75;4976444;28;20089;-46
2023/05/11 01:02:55;;;;;;;27.60;19.83;;;;;;;11.74;100.00;101319.63;4993306;28;20046;-45
2023/05/11 01:05:20;;;;;;;28.80;19.50;;;;;;;11.85;100.00;101320.16;4993391;28;20053;-50
2023/05/11 01:07:55;;;;;;;29.92;19.38;;;;;;;11.60;100.00;101276.94;4975784;28;20034;-46
2023/05/11 01:10:28;;;;;;;26.33;19.00;;;;;;;11.88;100.00;101321.00;4993511;28;20049;-48
2023/05/11 01:13:06;;;;;;;31.75;19.48;;;;;;;11.90;100.00;101325.31;4974766;28;20072;-48
2023/05/11 01:15:40;;;;;;;27.73;20.05;;;;;;;11.90;100.00;101330.59;4993142;28;20030;-45
2023/05/11 01:18:33;;;;;;;28.13;19.38;;;;;;;11.91;100.00;101327.03;4983909;28;20026;-49
2023/05/11 01:21:00;;;;;;;26.63;19.08;;;;;;;11.55;100.00;101264.81;4992983;28;20057;-44
2023/05/11 01:24:02;;;;;;;28.63;19.05;;;;;;;11.69;100.00;101329.44;4986234;28;20478;-50
2023/05/11 01:26:55;;;;;;;27.27;19.08;;;;;;;11.71;100.00;101351.34;4992849;28;20030;-46
2023/05/11 01:29:26;;;;;;;30.65;19.85;;;;;;;11.68;100.00;101332.09;4992016;28;20037;-47
2023/05/11 01:31:53;;;;;;;;;;;;;;;11.70;100.00;101325.88;4993509;28;20065;-44
2023/05/11 01:34:21;;;;;;;28.45;18.77;;;;;;;11.63;100.00;101340.13;4985557;28;19914;-46
2023/05/11 01:36:53;;;;;;;27.98;18.55;;;;;;;11.69;100.00;101337.38;4991308;28;20034;-48
2023/05/11 01:39:23;;;;;;;28.25;19.83;;;;;;;11.53;100.00;101307.03;4975605;28;20041;-46
2023/05/11 01:41:51;;;;;;;30.58;19.20;;;;;;;11.29;100.00;101276.94;4989601;28;20037;-46
2023/05/11 01:44:18;;;;;;;28.42;20.77;;;;;;;11.63;100.00;101328.72;4984843;28;20393;-48
2023/05/11 01:46:44;;;;;;;29.30;20.00;;;;;;;11.55;100.00;101315.78;4990828;28;20136;-49
2023/05/11 01:49:10;;;;;;;28.05;20.67;;;;;;;11.26;100.00;101263.91;4957786;28;20062;-45
2023/05/11 01:51:37;;;;;;;30.55;20.70;;;;;;;11.60;100.00;101334.97;4986754;28;20022;-46
2023/05/11 01:54:05;;;;;;;33.15;22.45;;;;;;;11.25;100.00;101277.97;4991464;28;20062;-45
2023/05/11 01:56:32;;;;;;;30.02;21.27;;;;;;;11.28;100.00;101280.53;4992807;28;20041;-46
2023/05/11 01:58:58;;;;;;;31.27;21.48;;;;;;;11.59;100.00;101338.50;4990557;28;20042;-47
2023/05/11 02:01:24;;;;;;;35.85;23.85;;;;;;;11.59;100.00;101337.63;4985689;28;20038;-49
2023/05/11 02:03:50;;;;;;;34.35;22.63;;;;;;;11.26;100.00;101284.97;4992778;28;20042;-48
2023/05/11 02:06:17;;;;;;;36.22;24.55;;;;;;;11.51;100.00;101332.56;4991447;28;20038;-45
2023/05/11 02:08:43;;;;;;;36.15;24.45;;;;;;;11.24;100.00;101285.91;4992331;28;20031;-45
2023/05/11 02:11:10;;;;;;;35.72;23.75;;;;;;;11.60;100.00;101344.63;4991959;28;20101;-48
2023/05/11 02:13:38;;;;;;;37.65;24.25;;;;;;;11.56;100.00;101342.97;4987505;28;20050;-50
2023/05/11 02:16:05;;;;;;;33.72;22.75;;;;;;;11.60;100.00;101350.78;4991541;28;20096;-45
2023/05/11 02:18:31;;;;;;;32.00;22.10;;;;;;;11.32;100.00;101296.25;4986816;28;20031;-47
2023/05/11 02:20:58;;;;;;;35.65;23.65;;;;;;;11.34;100.00;101297.06;4991019;28;20413;-46
2023/05/11 02:23:25;;;;;;;35.20;22.63;;;;;;;11.64;100.00;101349.78;4968899;28;20033;-47
2023/05/11 02:25:51;;;;;;;37.63;23.98;;;;;;;11.50;100.00;101340.53;4992960;28;20081;-46
2023/05/11 02:28:17;;;;;;;37.20;24.20;;;;;;;11.56;100.00;101353.53;4978935;28;20152;-51
2023/05/11 02:30:48;;;;;;;37.92;24.50;;;;;;;11.55;100.00;101350.06;4978475;28;20042;-47
2023/05/11 02:33:25;;;;;;;39.35;24.90;;;;;;;11.60;100.00;101365.72;4996082;28;20536;-46
2023/05/11 02:35:51;;;;;;;34.20;23.33;;;;;;;11.61;100.00;101355.16;4996380;28;20062;-44
2023/05/11 02:38:16;;;;;;;34.05;22.90;;;;;;;11.61;100.00;101354.28;4978620;28;20062;-44
2023/05/11 02:40:46;;;;;;;33.50;21.80;;;;;;;11.41;100.00;101317.06;4982113;28;20038;-44
2023/05/11 02:43:13;;;;;;;35.72;22.75;;;;;;;11.59;100.00;101367.50;4987660;28;20048;-45
2023/05/11 02:45:42;;;;;;;35.78;22.92;;;;;;;11.61;100.00;101364.81;4978943;28;20046;-47
2023/05/11 02:48:11;;;;;;;36.00;23.48;;;;;;;11.56;100.00;101348.25;4994647;28;20069;-45
2023/05/11 02:50:40;;;;;;;35.70;24.15;;;;;;;11.61;100.00;101356.91;4994918;28;20038;-49
2023/05/11 02:53:10;;;;;;;34.17;23.35;;;;;;;11.60;100.00;101355.19;4994684;28;20041;-45
2023/05/11 02:55:36;;;;;;;36.22;23.02;;;;;;;11.28;100.00;101292.81;4994490;28;20039;-45
2023/05/11 02:58:02;;;;;;;37.28;23.60;;;;;;;11.57;100.00;101347.34;4992832;28;20444;-47
2023/05/11 03:00:27;;;;;;;35.10;23.80;;;;;;;11.16;100.00;101272.94;4989323;28;20034;-46
2023/05/11 03:02:53;;;;;;;38.05;24.38;;;;;;;11.58;100.00;101346.47;4995477;28;20043;-46
2023/05/11 03:05:18;;;;;;;41.13;26.05;;;;;;;11.24;100.00;101288.53;4988205;28;20030;-46
2023/05/11 03:07:44;;;;;;;36.97;23.60;;;;;;;11.58;100.00;101355.25;4995286;28;20031;-44
2023/05/11 03:10:09;;;;;;;38.88;23.50;;;;;;;11.60;100.00;101353.41;4995357;28;20495;-47
2023/05/11 03:12:35;;;;;;;33.22;21.67;;;;;;;11.60;100.00;101345.50;4988891;28;20041;-49
2023/05/11 03:15:01;;;;;;;36.47;22.48;;;;;;;11.58;100.00;101342.06;4982446;28;20042;-49
2023/05/11 03:17:27;;;;;;;35.05;22.88;;;;;;;11.52;100.00;101338.72;4976854;28;20087;-46
2023/05/11 03:19:54;;;;;;;38.78;23.42;;;;;;;11.26;100.00;101292.00;4977050;28;20065;-46
2023/05/11 03:22:21;;;;;;;36.05;22.90;;;;;;;11.59;100.00;101349.03;4993815;28;20117;-47
2023/05/11 03:24:46;;;;;;;38.65;24.58;;;;;;;11.25;100.00;101301.69;4976777;28;20030;-46
2023/05/11 03:27:12;;;;;;;39.33;23.13;;;;;;;11.58;100.00;101352.59;4992141;28;20038;-47
2023/05/11 03:29:38;;;;;;;35.75;23.25;;;;;;;11.57;100.00;101344.72;4993818;28;20538;-45
2023/05/11 03:32:04;;;;;;;36.65;24.60;;;;;;;11.57;100.00;101342.94;4992880;28;20183;-48
2023/05/11 03:34:29;;;;;;;39.08;24.30;;;;;;;11.58;100.00;101343.81;4994196;28;20034;-47
2023/05/11 03:36:56;;;;;;;36.42;24.73;;;;;;;11.19;100.00;101272.00;4994017;28;20038;-48
2023/05/11 03:39:22;;;;;;;41.03;24.98;;;;;;;11.59;100.00;101341.13;4976638;28;20390;-48
2023/05/11 03:41:49;;;;;;;39.78;24.13;;;;;;;11.23;100.00;101287.69;4993918;28;20042;-45
2023/05/11 03:44:18;;;;;;;40.15;25.63;;;;;;;11.57;100.00;101331.53;4993555;28;20041;-47
2023/05/11 03:46:45;;;;;;;46.42;26.42;;;;;;;11.16;100.00;101265.03;4976613;28;20030;-48
2023/05/11 03:49:10;;;;;;;43.67;26.23;;;;;;;11.58;100.00;101341.19;4975219;28;20088;-47
2023/05/11 03:51:36;;;;;;;41.08;24.95;;;;;;;11.60;100.00;101336.72;4993718;28;20039;-45
2023/05/11 03:54:01;;;;;;;45.45;26.52;;;;;;;11.35;100.00;101301.44;4976250;28;20482;-45
2023/05/11 03:56:27;;;;;;;41.88;24.90;;;;;;;11.58;100.00;101343.81;4993773;28;20487;-48
2023/05/11 03:58:52;;;;;;;38.78;24.45;;;;;;;11.42;100.00;101303.84;4993247;28;20114;-47
2023/05/11 04:01:18;;;;;;;44.97;26.50;;;;;;;11.26;100.00;101276.19;4976474;28;20042;-45
2023/05/11 04:03:50;;;;;;;42.63;25.30;;;;;;;11.22;100.00;101277.19;4992675;28;20034;-48
2023/05/11 04:06:16;;;;;;;40.10;24.60;;;;;;;11.42;100.00;101298.56;4993626;28;20040;-46
2023/05/11 04:08:42;;;;;;;45.25;26.13;;;;;;;10.91;100.00;101208.69;4976110;28;20057;-47
2023/05/11 04:11:07;;;;;;;44.58;24.60;;;;;;;11.63;100.00;101331.34;4956510;28;1086408;-44
2023/05/11 04:13:32;;;;;;;42.58;25.20;;;;;;;11.28;100.00;101269.97;4993693;28;20514;-47
2023/05/11 04:15:58;;;;;;;42.60;24.80;;;;;;;11.60;100.00;101342.00;4994413;28;20061;-46
2023/05/11 04:18:23;;;;;;;47.80;24.98;;;;;;;11.60;100.00;101331.44;4993882;28;20047;-45
2023/05/11 04:20:48;;;;;;;44.70;25.00;;;;;;;11.23;100.00;101271.00;4975834;28;20189;-46
2023/05/11 04:23:14;;;;;;;39.78;23.77;;;;;;;11.53;100.00;101319.38;4994087;28;20096;-45
2023/05/11 04:25:39;;;;;;;41.33;23.80;;;;;;;11.25;100.00;101283.25;4994096;28;20041;-47
2023/05/11 04:28:05;;;;;;;41.25;24.77;;;;;;;11.62;100.00;101333.13;4993629;28;20038;-46
2023/05/11 04:30:30;;;;;;;44.55;24.70;;;;;;;11.66;100.00;101340.06;4994214;28;20092;-47
2023/05/11 04:32:55;;;;;;;42.60;23.75;;;;;;;11.71;100.00;101340.81;4993606;28;20056;-47
2023/05/11 04:35:21;;;;;;;42.85;24.85;;;;;;;11.73;100.00;101346.91;4993970;28;20034;-47
2023/05/11 04:37:46;;;;;;;45.22;24.10;;;;;;;11.61;100.00;101328.78;4991863;28;20041;-46
2023/05/11 04:40:12;;;;;;;44.95;24.10;;;;;;;11.09;100.00;101236.28;4993730;28;20553;-45
2023/05/11 04:42:37;;;;;;;42.67;24.10;;;;;;;11.84;100.00;101349.25;4976147;28;20038;-45
2023/05/11 04:45:03;;;;;;;44.45;25.65;;;;;;;11.90;100.00;101345.56;4993655;28;20034;-44
2023/05/11 04:47:28;;;;;;;37.03;23.17;;;;;;;11.82;100.00;101333.44;4993835;28;20042;-45
2023/05/11 04:49:53;;;;;;;39.10;23.55;;;;;;;11.92;100.00;101346.38;4993046;28;20121;-46
2023/05/11 04:52:19;;;;;;;40.13;25.30;;;;;;;11.95;100.00;101341.88;4986462;28;20121;-46
2023/05/11 04:54:44;;;;;;;45.33;25.05;;;;;;;12.07;100.00;101352.06;4992523;28;20438;-44
2023/05/11 04:57:09;;;;;;;47.08;25.73;;;;;;;12.10;100.00;101343.19;4993401;28;20604;-44
2023/05/11 04:59:35;;;;;;;44.92;25.48;;;;;;;11.75;100.00;101288.84;4993435;28;20386;-44
2023/05/11 05:02:00;;;;;;;40.75;24.38;;;;;;;12.11;100.00;101355.47;4991169;28;20379;-45
2023/05/11 05:04:25;;;;;;;40.03;23.92;;;;;;;12.16;100.00;101361.47;4993439;28;20049;-43
2023/05/11 05:06:51;;;;;;;39.17;22.40;;;;;;;12.20;100.00;101355.19;4993733;28;20034;-45
2023/05/11 05:09:16;;;;;;;39.58;23.65;;;;;;;12.23;100.00;101357.75;4975590;28;20089;-43
2023/05/11 05:11:41;;;;;;;34.47;21.73;;;;;;;11.81;100.00;101302.72;4980646;28;20125;-43
2023/05/11 05:14:07;;;;;;;37.72;22.27;;;;;;;12.11;100.00;101339.63;5012301;28;20464;-46
2023/05/11 05:16:32;;;;;;;42.15;23.02;;;;;;;12.21;100.00;101357.78;5012220;28;20034;-47
2023/05/11 05:18:58;;;;;;;45.30;24.40;;;;;;;12.31;100.00;101374.19;5011414;28;20073;-47
2023/05/11 05:21:23;;;;;;;38.05;21.75;;;;;;;12.24;100.00;101362.97;5011561;28;20030;-46
2023/05/11 05:23:48;;;;;;;37.63;21.98;;;;;;;12.36;100.00;101375.78;5012372;28;20034;-46
2023/05/11 05:26:14;;;;;;;35.28;22.50;;;;;;;12.36;100.00;101378.41;5010826;28;20153;-44
2023/05/11 05:28:39;;;;;;;37.60;22.17;;;;;;;12.11;100.00;101337.84;5011206;28;20117;-44
2023/05/11 05:31:05;;;;;;;39.08;21.88;;;;;;;12.02;100.00;101324.09;5007058;28;20090;-44
2023/05/11 05:33:30;;;;;;;38.97;22.55;;;;;;;12.26;100.00;101374.31;4999269;28;20046;-44
2023/05/11 05:35:55;;;;;;;39.80;23.10;;;;;;;12.03;100.00;101325.78;4987169;28;20030;-44
2023/05/11 05:38:21;;;;;;;37.28;22.02;;;;;;;12.32;100.00;101379.41;4997853;28;20030;-46
2023/05/11 05:40:46;;;;;;;36.17;22.75;;;;;;;12.45;100.00;101393.09;4992679;28;20462;-45
2023/05/11 05:43:12;;;;;;;38.55;22.60;;;;;;;12.46;100.00;101396.63;4993359;28;20030;-46
2023/05/11 05:45:37;;;;;;;39.10;23.08;;;;;;;12.14;100.00;101334.25;4992735;28;20062;-45
2023/05/11 05:48:04;;;;;;;39.33;23.13;;;;;;;12.63;100.00;101403.09;4993184;28;20046;-47
2023/05/11 05:50:30;;;;;;;36.15;22.75;;;;;;;12.40;100.00;101348.34;4988111;28;20042;-46
2023/05/11 05:52:56;;;;;;;35.15;22.80;;;;;;;12.81;100.00;101401.63;4974148;28;20401;-47
2023/05/11 05:55:22;;;;;;;32.85;21.45;;;;;;;12.72;100.00;101375.53;4993583;28;20034;-45
2023/05/11 05:57:48;;;;;;;35.05;22.08;;;;;;;12.94;100.00;101406.47;5002478;28;20038;-46
2023/05/11 06:00:14;;;;;;;33.05;21.75;;;;;;;12.76;100.00;101362.16;4992850;28;20046;-47
2023/05/11 06:02:40;;;;;;;32.03;21.90;;;;;;;12.95;100.00;101381.78;4995641;28;20041;-47
2023/05/11 06:05:06;;;;;;;37.50;23.55;;;;;;;12.89;100.00;101360.84;4978865;28;20088;-45
2023/05/11 06:07:32;;;;;;;34.42;22.70;;;;;;;12.85;100.00;101351.28;4963009;28;20043;-50
2023/05/11 06:09:57;;;;;;;35.20;22.67;;;;;;;13.03;100.00;101375.34;4978912;28;20169;-44
2023/05/11 06:12:23;;;;;;;33.78;22.13;;;;;;;13.17;100.00;101415.41;4973289;28;20488;-44
2023/05/11 06:14:48;;;;;;;35.38;21.73;;;;;;;13.17;100.00;101411.00;4994295;28;20630;-45
2023/05/11 06:17:13;;;;;;;31.58;22.02;;;;;;;13.30;100.00;101404.41;4995984;28;20050;-44
2023/05/11 06:19:39;;;;;;;30.52;21.50;;;;;;;13.33;100.00;101419.28;4987973;28;20042;-44
2023/05/11 06:22:05;;;;;;;27.92;20.25;;;;;;;13.26;100.00;101401.88;4995605;28;20039;-44
2023/05/11 06:24:30;;;;;;;28.48;20.60;;;;;;;13.37;100.00;101418.25;4994874;28;20038;-46
2023/05/11 06:26:55;;;;;;;27.42;20.13;;;;;;;13.09;100.00;101357.53;4994591;28;20038;-46
2023/05/11 06:29:21;;;;;;;30.52;20.38;;;;;;;13.05;100.00;101371.72;4993691;28;20231;-45
2023/05/11 06:31:51;;;;;;;27.05;19.85;;;;;;;13.41;100.00;101419.88;4995461;28;20520;-47
2023/05/11 06:34:20;;;;;;;29.92;19.92;;;;;;;13.37;100.00;101423.53;4995562;28;20041;-43
2023/05/11 06:36:46;;;;;;;27.90;19.92;;;;;;;13.50;100.00;101425.72;4975226;28;20042;-42
2023/05/11 06:39:11;;;;;;;28.63;20.30;;;;;;;13.26;100.00;101364.88;4995273;28;20030;-46
2023/05/11 06:41:37;;;;;;;27.48;19.60;;;;;;;13.56;100.00;101413.19;4995928;28;20125;-47
2023/05/11 06:44:03;;;;;;;26.52;18.25;;;;;;;13.67;100.00;101418.94;4994414;28;20039;-47
2023/05/11 06:46:28;;;;;;;27.52;19.17;;;;;;;13.22;100.00;101326.28;4989317;28;20097;-43
2023/05/11 06:48:53;;;;;;;26.98;19.67;;;;;;;13.90;100.00;101427.78;4995256;28;20034;-42
2023/05/11 06:51:20;;;;;;;24.25;19.02;;;;;;;14.00;100.00;101415.94;4995589;28;20030;-44
2023/05/11 06:53:46;;;;;;;25.55;19.55;;;;;;;14.03;100.00;101397.31;4994737;28;20129;-44
2023/05/11 06:56:11;;;;;;;23.83;19.00;;;;;;;14.30;100.00;101432.44;4992194;28;20534;-45
2023/05/11 06:58:37;;;;;;;26.92;21.10;;;;;;;14.33;100.00;101442.94;4993014;28;20396;-43
2023/05/11 07:01:04;;;;;;;28.42;21.02;;;;;;;14.45;100.00;101437.19;4974743;28;20404;-43
2023/05/11 07:03:30;;;;;;;33.45;22.60;;;;;;;14.51;100.00;101438.72;4992848;28;20056;-47
2023/05/11 07:05:55;;;;;;;31.10;22.10;;;;;;;14.40;100.00;101395.91;4992637;28;20537;-45
2023/05/11 07:08:20;;;;;;;33.58;23.13;;;;;;;14.27;100.00;101368.16;4992898;28;20042;-47
2023/05/11 07:10:46;;;;;;;36.28;22.52;;;;;;;14.75;100.00;101447.50;4992679;28;20137;-46
2023/05/11 07:13:11;;;;;;;30.33;22.42;;;;;;;14.82;100.00;101441.03;4992587;28;20046;-44
2023/05/11 07:15:36;;;;;;;31.45;22.17;;;;;;;14.92;100.00;101445.91;4971754;28;20375;-48
2023/05/11 07:18:02;;;;;;;32.17;22.25;;;;;;;14.57;100.00;101391.66;4992486;28;20401;-46
2023/05/11 07:20:27;;;;;;;32.78;21.60;;;;;;;15.08;100.00;101457.63;4992467;28;20042;-45
2023/05/11 07:22:57;;;;;;;30.15;22.63;;;;;;;15.16;100.00;101459.94;4993852;28;20046;-46
2023/05/11 07:25:23;;;;;;;27.67;21.33;;;;;;;14.83;100.00;101403.00;4972982;28;20154;-44
2023/05/11 07:27:49;;;;;;;31.77;22.00;;;;;;;15.23;100.00;101461.44;4990461;28;20133;-44
2023/05/11 07:30:14;;;;;;;31.38;21.90;;;;;;;15.24;100.00;101455.19;4993729;28;20405;-45
2023/05/11 07:32:40;;;;;;;31.45;22.08;;;;;;;15.31;100.00;101454.00;4986088;28;20466;-42
2023/05/11 07:35:06;;;;;;;30.40;21.17;;;;;;;15.23;100.00;101460.56;4992034;28;20049;-45
2023/05/11 07:37:32;;;;;;;28.52;21.13;;;;;;;15.30;100.00;101464.66;4975947;28;20034;-48
2023/05/11 07:39:57;;;;;;;30.00;21.42;;;;;;;15.31;100.00;101456.66;4976557;28;20041;-42
2023/05/11 07:42:23;;;;;;;28.00;20.52;;;;;;;15.28;100.00;101462.09;4993847;28;20030;-43
2023/05/11 07:44:49;;;;;;;32.38;20.08;;;;;;;15.18;100.00;101463.38;4992518;28;20065;-42
2023/05/11 07:47:15;;;;;;;26.75;19.25;;;;;;;14.98;100.00;101466.00;4993898;28;20043;-42
2023/05/11 07:49:41;;;;;;;24.55;18.48;;;;;;;14.83;100.00;101470.13;4993218;28;20073;-46
2023/05/11 07:52:06;;;;;;;26.00;18.50;;;;;;;15.01;100.00;101471.16;4992322;28;20442;-43
2023/05/11 07:54:35;;;;;;;23.55;18.02;;;;;;;14.97;100.00;101465.13;4974871;28;20402;-44
2023/05/11 07:57:03;;;;;;;24.55;16.70;;;;;;;14.97;100.00;101461.63;4991536;28;20046;-44
2023/05/11 07:59:29;;;;;;;20.73;16.23;;;;;;;15.08;100.00;101476.19;4993313;28;20042;-42
2023/05/11 08:01:54;;;;;;;21.65;15.23;;;;;;;15.09;100.00;101469.09;4993657;28;20525;-43
2023/05/11 08:04:19;;;;;;;17.10;13.68;;;;;;;14.82;100.00;101420.72;4960919;28;20034;-46
2023/05/11 08:06:45;;;;;;;20.65;15.35;;;;;;;15.35;100.00;101474.19;4992010;28;20062;-43
2023/05/11 08:09:10;;;;;;;19.42;14.88;;;;;;;15.13;100.00;101422.94;4993396;28;20038;-43
2023/05/11 08:11:35;;;;;;;20.88;14.70;;;;;;;15.31;100.00;101477.88;4972827;28;20114;-44
2023/05/11 08:14:02;;;;;;;19.85;15.18;;;;;;;15.45;100.00;101474.63;4986334;28;20046;-47
2023/05/11 08:16:27;;;;;;;17.40;14.65;;;;;;;15.57;100.00;101488.28;4981542;28;20038;-46
2023/05/11 08:18:52;;;;;;;21.92;16.45;;;;;;;15.79;100.00;101468.78;4993916;28;20096;-44
2023/05/11 08:21:18;;;;;;;22.08;16.30;;;;;;;15.53;100.00;101436.25;4991514;28;20396;-48
2023/05/11 08:23:43;;;;;;;28.63;17.48;;;;;;;15.90;100.00;101496.59;4988406;28;20094;-48
2023/05/11 08:26:09;;;;;;;36.85;21.95;;;;;;;15.72;100.00;101425.72;4977024;28;20110;-46
2023/05/11 08:28:35;;;;;;;26.75;18.52;;;;;;;15.94;100.00;101413.19;4981048;28;20042;-43
2023/05/11 08:31:00;;;;;;;22.50;16.77;;;;;;;16.46;100.00;101486.03;4974844;28;20137;-45
2023/05/11 08:33:28;;;;;;;19.70;16.58;;;;;;;16.57;100.00;101481.13;4992284;28;20034;-46
2023/05/11 08:35:53;;;;;;;21.85;17.55;;;;;;;16.36;100.00;101430.75;4990706;28;20469;-46
2023/05/11 08:38:19;;;;;;;21.65;15.20;;;;;;;16.59;100.00;101495.22;4991442;28;20727;-45
2023/05/11 08:40:47;;;;;;;20.70;16.73;;;;;;;16.70;100.00;101478.75;4988344;28;20061;-43
2023/05/11 08:43:17;;;;;;;19.35;15.68;;;;;;;16.55;100.00;101443.13;4975431;28;20034;-43
2023/05/11 08:45:47;;;;;;;20.30;16.00;;;;;;;16.78;100.00;101492.56;4992228;28;20478;-44
2023/05/11 08:48:14;;;;;;;21.38;15.05;;;;;;;16.99;100.00;101488.84;4971411;28;20468;-45
2023/05/11 08:50:40;;;;;;;18.23;14.35;;;;;;;17.35;100.00;101502.13;4978376;28;20041;-45
2023/05/11 08:53:06;;;;;;;16.00;12.63;;;;;;;18.13;100.00;101453.69;4974149;28;20038;-45
2023/05/11 08:55:32;;;;;;;18.10;13.65;;;;;;;18.98;100.00;101505.84;4974601;28;20049;-45
2023/05/11 08:57:59;;;;;;;14.68;12.50;;;;;;;19.11;100.00;101512.22;4974328;28;20501;-46
2023/05/11 09:00:25;;;;;;;12.80;10.20;;;;;;;19.15;100.00;101512.91;4992060;28;20035;-45
2023/05/11 09:02:51;;;;;;;11.75;10.52;;;;;;;19.01;100.00;101444.31;4983436;28;20130;-51
2023/05/11 09:05:16;;;;;;;12.30;10.15;;;;;;;20.05;100.00;101451.34;4968777;28;20446;-43
2023/05/11 09:07:43;;;;;;;15.65;10.40;;;;;;;20.80;100.00;101460.88;4971603;28;20507;-47
2023/05/11 09:10:08;;;;;;;13.82;12.18;;;;;;;20.84;100.00;101497.16;4965903;28;20632;-45
2023/05/11 09:12:35;;;;;;;12.43;11.23;;;;;;;20.43;100.00;101478.41;4973791;28;20047;-46
2023/05/11 09:15:00;;;;;;;15.27;10.38;;;;;;;20.23;100.00;101464.56;4990792;28;20030;-45
2023/05/11 09:17:27;;;;;;;12.18;9.65;;;;;;;21.00;100.00;101505.06;4971060;28;20042;-51
2023/05/11 09:20:11;;;;;;;9.27;7.90;;;;;;;21.11;100.00;101499.88;4990165;28;20038;-45
2023/05/11 09:22:42;;;;;;;10.10;8.20;;;;;;;20.01;100.00;101455.19;4972039;28;20043;-46
2023/05/11 09:25:10;;;;;;;8.93;8.00;;;;;;;19.05;100.00;101462.75;4991657;28;20042;-49
2023/05/11 09:27:40;;;;;;;8.77;7.88;;;;;;;18.92;100.00;101511.53;4991634;28;20041;-46
2023/05/11 09:30:17;;;;;;;10.07;9.07;;;;;;;18.30;100.00;101494.50;4983325;28;20045;-44
2023/05/11 09:32:50;;;;;;;10.27;8.80;;;;;;;17.83;100.00;101512.97;4990930;28;20081;-44
2023/05/11 09:35:19;;;;;;;10.10;8.25;;;;;;;17.82;100.00;101503.28;4991890;28;20038;-45
2023/05/11 09:38:03;;;;;;;12.88;10.27;;;;;;;17.34;100.00;101444.53;4989697;28;20405;-44
2023/05/11 09:40:35;;;;;;;13.52;11.93;;;;;;;17.36;100.00;101498.56;4991736;28;20034;-45
2023/05/11 09:43:02;;;;;;;13.85;11.30;;;;;;;17.36;100.00;101498.56;4990570;28;20046;-46
2023/05/11 09:45:37;;;;;;;13.90;11.90;;;;;;;17.00;100.00;101432.06;4991602;28;20413;-43
2023/05/11 09:48:05;;;;;;;13.77;12.38;;;;;;;17.40;100.00;101494.78;4991249;28;20030;-44
2023/05/11 09:50:34;;;;;;;19.35;15.63;;;;;;;17.54;100.00;101494.97;4991634;28;20481;-46
2023/05/11 09:52:59;;;;;;;14.55;13.05;;;;;;;17.54;100.00;101433.75;4972039;28;20030;-51
2023/05/11 09:55:24;;;;;;;18.90;14.77;;;;;;;17.81;100.00;101493.56;4991480;28;20034;-46
2023/05/11 09:57:57;;;;;;;19.45;14.80;;;;;;;17.82;100.00;101497.09;4988237;28;20536;-44
2023/05/11 10:00:24;;;;;;;20.27;15.55;;;;;;;17.74;100.00;101502.84;4988641;28;20038;-44
2023/05/11 10:03:06;;;;;;;17.95;15.50;;;;;;;17.86;100.00;101504.84;4991506;28;20043;-46
2023/05/11 10:05:35;;;;;;;16.55;13.82;;;;;;;17.68;100.00;101486.31;4973914;28;20121;-46
2023/05/11 10:08:02;;;;;;;16.58;14.85;;;;;;;17.63;100.00;101469.72;4989694;28;20125;-44
2023/05/11 10:10:29;;;;;;;17.77;14.40;;;;;;;17.51;100.00;101431.25;4986775;28;20069;-46
2023/05/11 10:12:57;;;;;;;17.20;15.10;;;;;;;17.79;100.00;101490.13;4972516;28;20042;-45
2023/05/11 10:15:26;;;;;;;18.13;15.10;;;;;;;17.87;100.00;101498.56;4986087;28;20042;-44
2023/05/11 10:17:57;;;;;;;15.43;13.77;;;;;;;17.55;100.00;101429.28;4989687;28;20402;-44
2023/05/11 10:20:23;;;;;;;18.30;14.98;;;;;;;18.15;100.00;101500.66;4970997;28;20073;-44
2023/05/11 10:22:54;;;;;;;17.77;14.73;;;;;;;17.90;100.00;101505.53;4991392;28;20041;-43
2023/05/11 10:25:23;;;;;;;19.02;14.95;;;;;;;17.57;100.00;101502.81;4953605;28;20166;-45
2023/05/11 10:27:49;;;;;;;17.40;14.18;;;;;;;17.45;100.00;101495.44;4981696;28;20043;-48
2023/05/11 10:30:14;;;;;;;16.70;14.23;;;;;;;17.27;100.00;101502.53;4970877;28;20100;-46
2023/05/11 10:32:40;;;;;;;18.85;14.98;;;;;;;17.09;100.00;101510.53;4984882;28;20363;-49
2023/05/11 10:35:06;;;;;;;17.73;14.40;;;;;;;16.39;100.00;101425.28;4980853;28;20065;-46
2023/05/11 10:37:32;;;;;;;18.60;14.25;;;;;;;16.76;100.00;101507.69;4989023;28;20030;-46
2023/05/11 10:39:58;;;;;;;17.88;14.82;;;;;;;16.56;100.00;101486.50;4983288;28;20050;-47
2023/05/11 10:42:51;;;;;;;16.92;14.30;;;;;;;16.10;100.00;101511.63;4988181;28;20054;-49
2023/05/11 10:45:21;;;;;;;15.45;13.85;;;;;;;15.68;100.00;101501.09;4978852;28;20045;-44
2023/05/11 10:48:06;;;;;;;18.77;14.15;;;;;;;15.48;100.00;101496.63;4970476;28;20038;-46
2023/05/11 10:51:09;;;;;;;17.38;15.10;;;;;;;15.46;100.00;101500.25;4960550;28;20035;-44
2023/05/11 10:53:40;;;;;;;17.65;13.68;;;;;;;15.20;100.00;101503.97;4981498;28;20512;-45
2023/05/11 10:56:05;;;;;;;20.67;13.85;;;;;;;14.98;100.00;101500.47;4992037;28;20104;-46
2023/05/11 10:59:00;;;;;;;18.98;14.00;;;;;;;14.83;100.00;101501.94;4993655;28;20466;-52
2023/05/11 11:01:42;;;;;;;18.67;14.40;;;;;;;14.80;100.00;101477.34;4942784;28;20058;-45
2023/05/11 11:04:09;;;;;;;22.92;16.55;;;;;;;14.83;100.00;101490.47;4973898;28;20060;-43